West Chesterfield, NH (03466)

6:30 AM EST on February 07, 2016 (GMT -0500)
West Bratt | | Change Station
CLOSE
Current Station
Personal Weather Station
Location: Vermont, VT
Elevation: 689 ft
Nearby Weather Stations

Elev 689 ft 42.87 °N, 72.60 °W | Updated 5 minutes ago

Partly Cloudy
Partly Cloudy
20.3 °F
Feels Like 20 °F
N
2.0
Wind Variable Wind from SSE
Gusts 2.0 mph

Today
High -- | Low -- °F
--% Chance of Precip.
Yesterday
High -- | Low -- °F
Precip. -- in
Pressure 30.14 in
Visibility 5.0 miles
Clouds Clear
Windchill 20 °F
Dew Point 17 °F
Humidity 87%
Rainfall 0.00 in
Snow Depth Not available.
6:58 AM 5:10 PM
Waning Crescent, 2% visible
METAR KEEN 071115Z AUTO 00000KT 5SM CLR M08/M12 A3014 RMK AO1
Pressure 30.14 in
Visibility 5.0 miles
Clouds Clear
Windchill 20 °F
Dew Point 17 °F
Humidity 87%
Rainfall 0.00 in
Snow Depth Not available.
6:58 AM 5:10 PM
Waning Crescent, 2% visible
METAR KEEN 071115Z AUTO 00000KT 5SM CLR M08/M12 A3014 RMK AO1

10-Day Weather Forecast

Almanac

Astronomy

Feb. 07, 2016 Rise Set
Actual Time
Civil Twilight
Nautical Twilight
Astronomical Twilight
Moon
Length of Visible Light
Length of Day
Tomorrow will be .
, % of the Moon is Illuminated

Today's Extremes

State Highs State Lows

Community

WunderPhotos

Upload Photos

1,891,170 photos uploaded!

WunderBlog® & News

Nearby

Air Quality

  Air Quality AQ Index Pollutant
Not available.

Snow Depth

Station Depth Elevation

Earthquake Activity

City Distance Mag. Time & Date
Minimum magnitude displayed is 2.5.

Coastal Water Temperatures

Place Temperature

Stations

Nearby Weather Stations

Station Location Temp. Windchill Dew Point Humidity Wind Precip. Elev Updated Type
                   

Watches & Warnings

There are currently no watches in effect.